createdAt,value
2019-02-23T00:02:02.570Z,103224.16
2019-02-23T00:04:32.972Z,103234.36
2019-02-23T00:07:03.833Z,103238.88
2019-02-23T00:09:33.535Z,103238.41
2019-02-23T00:12:04.662Z,103247.57
2019-02-23T00:14:34.664Z,103248.16
2019-02-23T00:17:04.133Z,103246.47
2019-02-23T00:19:33.789Z,103240.63
2019-02-23T00:22:04.463Z,103232.12
2019-02-23T00:24:34.039Z,103240.06
2019-02-23T00:27:04.356Z,103240.48
2019-02-23T00:29:34.647Z,103242.16
2019-02-23T00:32:04.529Z,103239.71
2019-02-23T00:34:33.996Z,103236.87
2019-02-23T00:37:04.358Z,103240.42
2019-02-23T00:39:33.815Z,103241.59
2019-02-23T00:42:03.714Z,103241.34
2019-02-23T00:44:33.226Z,103248.61
2019-02-23T00:47:02.788Z,103253.34
2019-02-23T00:49:36.253Z,103255.71
2019-02-23T00:52:03.721Z,103258.83
2019-02-23T00:54:34.118Z,103253.34
2019-02-23T00:57:03.664Z,103252.02
2019-02-23T00:59:33.210Z,103254.69
2019-02-23T01:02:05.108Z,103247.40
2019-02-23T01:04:35.001Z,103244.58
2019-02-23T01:07:04.508Z,103249.87
2019-02-23T01:09:34.142Z,103244.66
2019-02-23T01:12:03.678Z,103239.27
2019-02-23T01:14:33.134Z,103230.99
2019-02-23T01:17:02.648Z,103224.00
2019-02-23T01:19:32.132Z,103219.17
2019-02-23T01:22:01.816Z,103219.34
2019-02-23T01:24:33.717Z,103211.97
2019-02-23T01:27:03.197Z,103211.05
2019-02-23T01:29:36.973Z,103210.66
2019-02-23T01:32:06.613Z,103210.09
2019-02-23T01:34:36.165Z,103201.22
2019-02-23T01:37:06.139Z,103192.15
2019-02-23T01:39:35.697Z,103180.36
2019-02-23T01:42:05.374Z,103176.20
2019-02-23T01:44:34.846Z,103170.69
2019-02-23T01:47:04.804Z,103181.19
2019-02-23T01:49:36.664Z,103177.88
2019-02-23T01:52:06.566Z,103182.23
2019-02-23T01:54:36.096Z,103178.30
2019-02-23T01:57:05.738Z,103180.59
2019-02-23T01:59:35.357Z,103175.48
2019-02-23T02:02:04.830Z,103183.78
2019-02-23T02:04:34.616Z,103178.41
2019-02-23T02:07:04.136Z,103177.83
2019-02-23T02:09:34.116Z,103176.13
2019-02-23T02:12:04.284Z,103179.67
2019-02-23T02:14:34.626Z,103173.72
2019-02-23T02:17:05.464Z,103179.95
2019-02-23T02:19:35.641Z,103175.02
2019-02-23T02:22:05.117Z,103174.43
2019-02-23T02:24:38.838Z,103175.40
2019-02-23T02:27:08.699Z,103170.49
2019-02-23T02:29:38.141Z,103164.84
2019-02-23T02:32:07.752Z,103164.48
2019-02-23T02:34:37.182Z,103172.78
2019-02-23T02:37:06.856Z,103166.08
2019-02-23T02:39:36.465Z,103166.75
2019-02-23T02:42:05.977Z,103166.50
2019-02-23T02:44:35.564Z,103157.89
2019-02-23T02:47:05.024Z,103156.22
2019-02-23T02:49:34.516Z,103150.92
2019-02-23T02:52:04.081Z,103147.50
2019-02-23T02:54:34.399Z,103140.72
2019-02-23T02:57:03.920Z,103133.64
2019-02-23T02:59:34.303Z,103142.20
2019-02-23T03:02:04.084Z,103138.73
2019-02-23T03:04:33.562Z,103130.44
2019-02-23T03:07:03.023Z,103137.91
2019-02-23T03:09:32.703Z,103134.63
2019-02-23T03:12:03.023Z,103135.97
2019-02-23T03:14:32.631Z,103130.88
2019-02-23T03:17:02.115Z,103134.02
2019-02-23T03:19:31.648Z,103126.62
2019-02-23T03:22:01.341Z,103130.59
2019-02-23T03:24:30.930Z,103129.67
2019-02-23T03:27:00.430Z,103131.46
2019-02-23T03:29:29.980Z,103137.22
2019-02-23T03:31:59.490Z,103150.83
2019-02-23T03:34:29.127Z,103162.16
2019-02-23T03:36:58.784Z,103165.92
2019-02-23T03:39:28.290Z,103158.85
2019-02-23T03:41:58.222Z,103158.75
2019-02-23T03:44:27.745Z,103158.64
2019-02-23T03:46:57.225Z,103159.11
2019-02-23T03:49:26.871Z,103150.61
2019-02-23T03:51:56.428Z,103150.89
2019-02-23T03:54:26.000Z,103154.06
2019-02-23T03:56:55.625Z,103155.48
2019-02-23T03:59:25.135Z,103163.88
2019-02-23T04:01:54.842Z,103152.63
2019-02-23T04:04:24.782Z,103151.69
2019-02-23T04:06:56.029Z,103158.91
2019-02-23T04:09:25.639Z,103163.51
2019-02-23T04:11:58.101Z,103161.61
2019-02-23T04:14:28.541Z,103157.16
2019-02-23T04:16:58.419Z,103160.27
2019-02-23T04:19:28.817Z,103163.08
2019-02-23T04:21:58.403Z,103165.63
2019-02-23T04:24:28.025Z,103174.91
2019-02-23T04:26:57.562Z,103183.16
2019-02-23T04:29:27.086Z,103187.61
2019-02-23T04:31:57.558Z,103190.70
2019-02-23T04:34:27.057Z,103190.48
2019-02-23T04:36:57.661Z,103195.95
2019-02-23T04:39:27.190Z,103195.09
2019-02-23T04:41:56.764Z,103200.63
2019-02-23T04:44:26.286Z,103193.25
2019-02-23T04:46:56.230Z,103197.59
2019-02-23T04:49:26.190Z,103195.52
2019-02-23T04:51:56.098Z,103193.81
2019-02-23T04:54:26.046Z,103192.88
2019-02-23T04:56:55.675Z,103187.21
2019-02-23T04:59:25.282Z,103180.45
2019-02-23T05:01:54.810Z,103187.44
2019-02-23T05:04:24.873Z,103191.86
2019-02-23T05:06:55.047Z,103194.56
2019-02-23T05:09:25.628Z,103194.96
2019-02-23T05:11:55.896Z,103200.73
2019-02-23T05:14:25.611Z,103196.11
2019-02-23T05:16:55.297Z,103195.33
2019-02-23T05:19:25.640Z,103195.39
2019-02-23T05:21:55.302Z,103190.61
2019-02-23T05:24:26.289Z,103190.51
2019-02-23T05:26:55.758Z,103194.56
2019-02-23T05:29:25.310Z,103198.52
2019-02-23T05:31:54.921Z,103194.04
2019-02-23T05:34:24.582Z,103198.75
2019-02-23T05:36:55.188Z,103192.52
2019-02-23T05:39:24.797Z,103194.93
2019-02-23T05:41:55.188Z,103197.77
2019-02-23T05:44:24.698Z,103195.33
2019-02-23T05:46:54.608Z,103192.31
2019-02-23T05:49:24.146Z,103193.43
2019-02-23T05:51:53.999Z,103200.30
2019-02-23T05:54:24.411Z,103196.41
2019-02-23T05:56:53.928Z,103198.06
2019-02-23T05:59:25.890Z,103203.34
2019-02-23T06:01:55.378Z,103205.55
2019-02-23T06:04:25.176Z,103203.89
2019-02-23T06:06:55.109Z,103209.50
2019-02-23T06:09:24.789Z,103213.71
2019-02-23T06:11:54.560Z,103218.84
2019-02-23T06:14:24.021Z,103221.58
2019-02-23T06:16:53.570Z,103225.53
2019-02-23T06:19:23.111Z,103232.69
2019-02-23T06:21:54.713Z,103229.81
2019-02-23T06:24:25.111Z,103228.28
2019-02-23T06:26:54.579Z,103226.92
2019-02-23T06:29:24.096Z,103223.28
2019-02-23T06:31:53.734Z,103223.68
2019-02-23T06:34:23.268Z,103221.41
2019-02-23T06:36:52.775Z,103229.16
2019-02-23T06:39:23.463Z,103231.80
2019-02-23T06:41:53.030Z,103231.03
2019-02-23T06:44:23.198Z,103229.31
2019-02-23T06:46:52.633Z,103231.95
2019-02-23T06:49:22.331Z,103238.64
2019-02-23T06:51:51.801Z,103241.73
2019-02-23T06:54:22.281Z,103247.16
2019-02-23T06:56:52.836Z,103241.27
2019-02-23T06:59:22.696Z,103245.52
2019-02-23T07:01:52.159Z,103248.98
2019-02-23T07:04:21.837Z,103244.50
2019-02-23T07:06:52.875Z,103252.31
2019-02-23T07:09:25.597Z,103252.62
2019-02-23T07:11:58.878Z,103249.42
2019-02-23T07:14:28.351Z,103249.66
2019-02-23T07:16:57.966Z,103248.16
2019-02-23T07:19:27.472Z,103243.67
2019-02-23T07:21:57.070Z,103238.74
2019-02-23T07:24:26.794Z,103236.45
2019-02-23T07:26:57.003Z,103234.23
2019-02-23T07:29:26.848Z,103238.23
2019-02-23T07:31:56.501Z,103240.54
2019-02-23T07:34:26.830Z,103242.36
2019-02-23T07:36:56.729Z,103249.08
2019-02-23T07:39:26.304Z,103258.52
2019-02-23T07:41:56.188Z,103252.15
2019-02-23T07:44:27.564Z,103252.34
2019-02-23T07:46:57.990Z,103258.97
2019-02-23T07:49:27.554Z,103263.52
2019-02-23T07:51:58.462Z,103266.38
2019-02-23T07:54:28.774Z,103273.17
2019-02-23T07:56:58.295Z,103273.37
2019-02-23T07:59:27.774Z,103266.53
2019-02-23T08:01:57.228Z,103263.44
2019-02-23T08:04:28.969Z,103267.03
2019-02-23T08:06:59.248Z,103274.80
2019-02-23T08:09:29.408Z,103275.67
2019-02-23T08:11:58.890Z,103277.50
2019-02-23T08:14:28.466Z,103270.80
2019-02-23T08:16:57.956Z,103264.22
2019-02-23T08:19:27.765Z,103260.33
2019-02-23T08:21:57.276Z,103265.44
2019-02-23T08:24:26.737Z,103259.80
2019-02-23T08:26:56.825Z,103258.47
2019-02-23T08:29:28.214Z,103260.64
2019-02-23T08:31:58.018Z,103261.30
2019-02-23T08:34:27.746Z,103256.75
2019-02-23T08:36:57.385Z,103258.45
2019-02-23T08:39:26.900Z,103259.98
2019-02-23T08:41:56.547Z,103260.91
2019-02-23T08:44:26.142Z,103272.05
2019-02-23T08:46:55.785Z,103272.39
2019-02-23T08:49:25.843Z,103262.16
2019-02-23T08:51:55.396Z,103255.80
2019-02-23T08:54:24.953Z,103255.57
2019-02-23T08:56:55.370Z,103252.42
2019-02-23T08:59:25.459Z,103241.81
2019-02-23T09:01:54.966Z,103242.13
2019-02-23T09:04:25.542Z,103237.91
2019-02-23T09:06:55.166Z,103228.78
2019-02-23T09:09:24.794Z,103227.20
2019-02-23T09:11:54.282Z,103229.80
2019-02-23T09:14:23.888Z,103227.09
2019-02-23T09:16:54.393Z,103231.67
2019-02-23T09:19:23.989Z,103245.17
2019-02-23T09:21:53.493Z,103240.92
2019-02-23T09:24:23.487Z,103250.67
2019-02-23T09:26:53.032Z,103252.84
2019-02-23T09:29:22.613Z,103257.28
2019-02-23T09:31:53.691Z,103249.90
2019-02-23T09:34:23.230Z,103247.25
2019-02-23T09:36:52.692Z,103240.34
2019-02-23T09:39:22.193Z,103243.93
2019-02-23T09:41:51.710Z,103233.73
2019-02-23T09:44:21.298Z,103240.69
2019-02-23T09:46:50.813Z,103236.59
2019-02-23T09:49:20.442Z,103235.06
2019-02-23T09:51:50.904Z,103234.50
2019-02-23T09:54:21.345Z,103228.84
2019-02-23T09:56:50.949Z,103233.20
2019-02-23T09:59:20.433Z,103231.42
2019-02-23T10:01:50.072Z,103231.06
2019-02-23T10:04:19.703Z,103234.70
2019-02-23T10:06:49.182Z,103234.92
2019-02-23T10:09:18.758Z,103240.01
2019-02-23T10:11:48.267Z,103240.72
2019-02-23T10:14:17.846Z,103236.66
2019-02-23T10:16:47.309Z,103224.27
2019-02-23T10:19:17.769Z,103223.08
2019-02-23T10:21:47.253Z,103218.88
2019-02-23T10:24:16.908Z,103205.80
2019-02-23T10:26:46.474Z,103204.03
2019-02-23T10:29:15.978Z,103200.00
2019-02-23T10:31:45.482Z,103196.03
2019-02-23T10:34:14.949Z,103190.38
2019-02-23T10:36:44.591Z,103182.98
2019-02-23T10:39:14.542Z,103179.45
2019-02-23T10:41:44.630Z,103177.57
2019-02-23T10:44:14.210Z,103182.42
2019-02-23T10:46:43.764Z,103174.90
2019-02-23T10:49:13.657Z,103174.82
2019-02-23T10:51:43.256Z,103170.78
2019-02-23T10:54:12.716Z,103171.27
2019-02-23T10:56:42.553Z,103169.45
2019-02-23T10:59:12.790Z,103175.23
2019-02-23T11:01:42.386Z,103170.38
2019-02-23T11:04:12.463Z,103165.45
2019-02-23T11:06:42.552Z,103160.06
2019-02-23T11:09:16.563Z,103164.38
2019-02-23T11:11:48.395Z,103160.88
2019-02-23T11:14:18.301Z,103165.47
2019-02-23T11:16:47.927Z,103167.61
2019-02-23T11:19:18.363Z,103175.96
2019-02-23T11:21:47.887Z,103182.23
2019-02-23T11:24:18.486Z,103171.42
2019-02-23T11:26:48.192Z,103174.44
2019-02-23T11:29:18.730Z,103167.38
2019-02-23T11:31:48.230Z,103165.63
2019-02-23T11:34:18.467Z,103162.56
2019-02-23T11:36:48.033Z,103152.77
2019-02-23T11:39:17.515Z,103157.14
2019-02-23T11:41:47.295Z,103157.20
2019-02-23T11:44:16.751Z,103157.91
2019-02-23T11:46:59.969Z,103151.42
2019-02-23T11:49:17.962Z,103144.20
2019-02-23T11:51:47.528Z,103143.95
2019-02-23T11:54:17.182Z,103138.73
2019-02-23T11:56:46.721Z,103140.52
2019-02-23T11:59:16.660Z,103137.15
2019-02-23T12:01:46.270Z,103139.17
2019-02-23T12:04:16.093Z,103133.61
2019-02-23T12:06:45.844Z,103142.14
2019-02-23T12:09:15.460Z,103138.32
2019-02-23T12:11:45.062Z,103134.17
2019-02-23T12:14:14.765Z,103132.18
2019-02-23T12:16:44.852Z,103117.48
2019-02-23T12:19:14.826Z,103118.40
2019-02-23T12:21:44.598Z,103111.45
2019-02-23T12:24:14.336Z,103116.44
2019-02-23T12:26:43.888Z,103111.27
2019-02-23T12:29:13.501Z,103107.68
2019-02-23T12:31:43.113Z,103107.32
2019-02-23T12:34:12.830Z,103107.05
2019-02-23T12:36:42.655Z,103102.79
2019-02-23T12:39:12.160Z,103095.37
2019-02-23T12:41:42.041Z,103100.63
2019-02-23T12:44:11.698Z,103091.31
2019-02-23T12:46:41.487Z,103083.98
2019-02-23T12:49:11.229Z,103090.27
2019-02-23T12:51:40.946Z,103085.20
2019-02-23T12:54:16.794Z,103086.37
2019-02-23T12:56:42.381Z,103081.73
2019-02-23T12:59:12.209Z,103079.40
2019-02-23T13:01:41.963Z,103084.47
2019-02-23T13:04:11.725Z,103080.87
2019-02-23T13:06:41.346Z,103081.17
2019-02-23T13:09:18.443Z,103077.53
2019-02-23T13:12:34.972Z,103071.34
2019-02-23T13:15:15.011Z,103070.67
2019-02-23T13:18:19.736Z,103061.41
2019-02-23T13:21:20.588Z,103057.34
2019-02-23T13:24:28.318Z,103056.00
2019-02-23T13:27:18.867Z,103044.27
2019-02-23T13:30:37.495Z,103033.08
2019-02-23T13:33:46.211Z,103025.20
2019-02-23T13:36:48.524Z,103023.34
2019-02-23T13:39:26.347Z,103022.20
2019-02-23T13:42:28.737Z,103019.34
2019-02-23T13:45:33.415Z,103027.25
2019-02-23T13:48:45.280Z,103032.97
2019-02-23T13:51:37.787Z,103033.80
2019-02-23T13:54:40.316Z,103038.67
2019-02-23T13:57:53.392Z,103043.73
2019-02-23T14:01:09.560Z,103036.57
2019-02-23T14:04:23.634Z,103025.36
2019-02-23T14:07:06.668Z,103011.91
2019-02-23T14:10:23.170Z,103007.03
2019-02-23T14:13:37.133Z,103013.23
2019-02-23T14:16:43.247Z,103011.98
2019-02-23T14:19:58.104Z,103003.86
2019-02-23T14:23:07.175Z,103010.30
2019-02-23T14:26:12.897Z,103014.80
2019-02-23T14:29:41.522Z,103014.70
2019-02-23T14:32:47.424Z,103020.39
2019-02-23T14:35:34.946Z,103016.23
2019-02-23T14:38:41.190Z,103024.72
2019-02-23T14:41:42.773Z,103020.85
2019-02-23T14:44:50.810Z,103022.38
2019-02-23T14:47:51.339Z,103018.55
2019-02-23T14:51:13.800Z,103016.83
2019-02-23T14:54:09.661Z,103011.09
2019-02-23T14:57:00.211Z,103011.44
2019-02-23T14:59:54.929Z,103006.30
2019-02-23T15:03:06.646Z,103007.02
2019-02-23T15:05:58.723Z,103011.38
2019-02-23T15:09:13.734Z,103006.81
2019-02-23T15:12:21.694Z,103006.93
2019-02-23T15:15:20.706Z,102999.22
2019-02-23T15:18:38.495Z,103003.21
2019-02-23T15:22:03.701Z,102997.08
2019-02-23T15:25:27.063Z,102997.41
2019-02-23T15:28:41.041Z,102995.77
2019-02-23T15:31:41.347Z,102994.29
2019-02-23T15:34:38.078Z,102992.89
2019-02-23T15:37:39.206Z,102991.63
2019-02-23T15:40:43.690Z,102994.82
2019-02-23T15:43:43.837Z,102996.25
2019-02-23T15:47:03.672Z,102992.87
2019-02-23T15:49:35.610Z,102987.30
2019-02-23T15:52:07.646Z,102982.65
2019-02-23T15:54:38.311Z,102978.27
2019-02-23T15:57:08.329Z,102977.75
2019-02-23T15:59:38.337Z,102975.00
2019-02-23T16:02:08.553Z,102978.49
2019-02-23T16:04:38.694Z,102978.84
2019-02-23T16:07:08.917Z,102981.67
2019-02-23T16:09:39.074Z,102991.63
2019-02-23T16:12:09.000Z,102992.23
2019-02-23T16:14:38.924Z,103000.56
2019-02-23T16:17:09.044Z,102999.07
2019-02-23T16:19:38.995Z,103001.55
2019-02-23T16:22:08.936Z,102999.32
2019-02-23T16:24:38.913Z,103005.38
2019-02-23T16:27:08.897Z,103003.93
2019-02-23T16:29:39.236Z,103011.64
2019-02-23T16:32:09.634Z,103008.88
2019-02-23T16:34:39.740Z,103008.95
2019-02-23T16:37:09.828Z,103005.98
2019-02-23T16:39:40.661Z,103010.09
2019-02-23T16:42:12.092Z,103019.89
2019-02-23T16:44:42.013Z,103026.02
2019-02-23T16:47:12.457Z,103020.39
2019-02-23T16:49:42.444Z,103031.48
2019-02-23T16:52:12.456Z,103030.91
2019-02-23T16:54:42.489Z,103034.13
2019-02-23T16:57:12.536Z,103044.88
2019-02-23T16:59:42.561Z,103039.33
2019-02-23T17:02:12.566Z,103043.78
2019-02-23T17:04:53.035Z,103044.95
2019-02-23T17:07:14.169Z,103040.02
2019-02-23T17:09:44.172Z,103038.95
2019-02-23T17:12:14.973Z,103038.38
2019-02-23T17:14:44.824Z,103038.02
2019-02-23T17:17:14.905Z,103043.31
2019-02-23T17:19:44.859Z,103046.70
2019-02-23T17:22:15.245Z,103041.48
2019-02-23T17:24:45.228Z,103045.70
2019-02-23T17:27:15.219Z,103048.92
2019-02-23T17:29:45.135Z,103057.45
2019-02-23T17:32:15.035Z,103055.84
2019-02-23T17:34:45.060Z,103057.52
2019-02-23T17:37:15.079Z,103059.48
2019-02-23T17:39:45.071Z,103051.13
2019-02-23T17:42:27.360Z,103050.03
2019-02-23T17:44:46.853Z,103048.42
2019-02-23T17:47:16.887Z,103044.66
2019-02-23T17:49:46.854Z,103048.98
2019-02-23T17:52:17.775Z,103039.54
2019-02-23T17:54:47.980Z,103043.99
2019-02-23T17:57:20.312Z,103038.61
2019-02-23T17:59:50.210Z,103049.15
2019-02-23T18:02:20.391Z,103047.31
2019-02-23T18:04:50.432Z,103049.70
2019-02-23T18:07:20.532Z,103046.45
2019-02-23T18:09:51.778Z,103040.72
2019-02-23T18:12:21.647Z,103040.46
2019-02-23T18:14:51.676Z,103040.67
2019-02-23T18:17:21.931Z,103037.16
2019-02-23T18:19:51.918Z,103035.09
2019-02-23T18:22:22.091Z,103038.09
2019-02-23T18:24:52.207Z,103033.39
2019-02-23T18:27:22.280Z,103036.47
2019-02-23T18:29:53.213Z,103031.97
2019-02-23T18:32:23.283Z,103034.61
2019-02-23T18:34:53.765Z,103027.20
2019-02-23T18:37:24.336Z,103030.13
2019-02-23T18:39:54.375Z,103029.59
2019-02-23T18:42:24.446Z,103032.55
2019-02-23T18:44:54.425Z,103032.13
2019-02-23T18:47:24.457Z,103035.44
2019-02-23T18:49:54.476Z,103036.31
2019-02-23T18:52:24.583Z,103037.75
2019-02-23T18:54:54.579Z,103033.87
2019-02-23T18:57:24.561Z,103047.61
2019-02-23T18:59:54.733Z,103041.93
2019-02-23T19:02:24.773Z,103036.48
2019-02-23T19:04:54.765Z,103031.75
2019-02-23T19:07:24.804Z,103032.54
2019-02-23T19:09:54.855Z,103029.94
2019-02-23T19:12:24.834Z,103027.46
2019-02-23T19:14:54.858Z,103025.88
2019-02-23T19:17:24.919Z,103021.80
2019-02-23T19:19:55.120Z,103021.34
2019-02-23T19:22:25.333Z,103026.36
2019-02-23T19:24:55.330Z,103025.23
2019-02-23T19:27:25.341Z,103024.92
2019-02-23T19:29:55.358Z,103022.39
2019-02-23T19:32:25.258Z,103019.87
2019-02-23T19:34:55.163Z,103026.04
2019-02-23T19:37:25.243Z,103023.31
2019-02-23T19:39:55.236Z,103020.23
2019-02-23T19:42:26.712Z,103019.95
2019-02-23T19:44:56.675Z,103025.44
2019-02-23T19:47:29.835Z,103024.41
2019-02-23T19:50:20.568Z,103033.20
2019-02-23T19:52:50.579Z,103028.09
2019-02-23T19:55:20.733Z,103026.69
2019-02-23T19:57:50.829Z,103029.24
2019-02-23T20:00:23.277Z,103025.97
2019-02-23T20:02:56.110Z,103031.53
2019-02-23T20:05:25.995Z,103026.50
2019-02-23T20:07:56.196Z,103025.53
2019-02-23T20:10:26.139Z,103023.75
2019-02-23T20:12:56.213Z,103025.06
2019-02-23T20:15:26.219Z,103028.68
2019-02-23T20:17:56.408Z,103033.19
2019-02-23T20:20:26.459Z,103028.68
2019-02-23T20:22:56.410Z,103033.09
2019-02-23T20:25:26.348Z,103019.41
2019-02-23T20:27:56.358Z,103017.11
2019-02-23T20:30:26.439Z,103022.05
2019-02-23T20:32:56.455Z,103016.37
2019-02-23T20:35:26.397Z,103015.41
2019-02-23T20:37:56.585Z,103013.16
2019-02-23T20:40:26.651Z,103016.89
2019-02-23T20:42:56.638Z,103016.81
2019-02-23T20:45:26.661Z,103017.28
2019-02-23T20:47:56.750Z,103016.81
2019-02-23T20:50:26.871Z,103024.08
2019-02-23T20:52:56.855Z,103016.07
2019-02-23T20:55:26.916Z,103016.02
2019-02-23T20:57:56.909Z,103014.52
2019-02-23T21:00:26.891Z,103009.27
2019-02-23T21:02:56.955Z,103016.44
2019-02-23T21:05:27.224Z,103010.78
2019-02-23T21:07:57.103Z,103008.90
2019-02-23T21:10:27.643Z,103008.16
2019-02-23T21:12:57.983Z,103013.08
2019-02-23T21:15:27.966Z,103008.61
2019-02-23T21:17:57.840Z,103011.94
2019-02-23T21:20:27.967Z,103018.05
2019-02-23T21:22:57.868Z,103019.56
2019-02-23T21:25:27.962Z,103011.18
2019-02-23T21:27:57.800Z,103016.75
2019-02-23T21:30:27.791Z,103016.64
2019-02-23T21:32:58.664Z,103018.89
2019-02-23T21:35:28.684Z,103017.21
2019-02-23T21:37:58.907Z,103028.30
2019-02-23T21:40:28.762Z,103028.12
2019-02-23T21:42:58.525Z,103026.63
2019-02-23T21:45:28.443Z,103022.66
2019-02-23T21:47:58.403Z,103030.30
2019-02-23T21:50:28.557Z,103026.23
2019-02-23T21:52:58.549Z,103029.33
2019-02-23T21:55:28.557Z,103021.77
2019-02-23T21:57:58.599Z,103026.58
2019-02-23T22:00:28.480Z,103026.97
2019-02-23T22:02:58.361Z,103023.02
2019-02-23T22:05:28.163Z,103025.66
2019-02-23T22:07:58.079Z,103033.11
2019-02-23T22:10:27.868Z,103034.50
2019-02-23T22:12:58.073Z,103028.58
2019-02-23T22:15:28.217Z,103027.16
2019-02-23T22:17:58.030Z,103027.16
2019-02-23T22:20:27.855Z,103028.65
2019-02-23T22:22:57.670Z,103025.27
2019-02-23T22:25:27.200Z,103022.84
2019-02-23T22:27:57.334Z,103018.70
2019-02-23T22:30:26.984Z,103017.11
2019-02-23T22:32:56.505Z,103012.11
2019-02-23T22:35:26.047Z,103011.72
2019-02-23T22:37:55.811Z,103013.61
2019-02-23T22:40:25.866Z,103015.67
2019-02-23T22:42:55.448Z,103015.86
2019-02-23T22:45:25.352Z,103014.64
2019-02-23T22:47:54.876Z,103017.06
2019-02-23T22:50:24.516Z,103016.23
2019-02-23T22:52:54.036Z,103020.77
2019-02-23T22:55:23.535Z,103021.59
2019-02-23T22:57:53.088Z,103020.38
2019-02-23T23:00:25.976Z,103025.27
2019-02-23T23:02:55.729Z,103028.19
2019-02-23T23:05:26.215Z,103019.05
2019-02-23T23:07:55.675Z,103015.73
2019-02-23T23:10:26.037Z,103028.47
2019-02-23T23:12:55.579Z,103029.22
2019-02-23T23:15:25.084Z,103032.13
2019-02-23T23:17:54.677Z,103022.50
2019-02-23T23:20:24.398Z,103025.22
2019-02-23T23:22:56.797Z,103019.73
2019-02-23T23:25:26.397Z,103016.80
2019-02-23T23:27:56.377Z,103017.66
2019-02-23T23:30:25.888Z,103017.83
2019-02-23T23:32:55.480Z,103016.09
2019-02-23T23:35:25.579Z,103021.81
2019-02-23T23:37:55.083Z,103018.42
2019-02-23T23:40:24.690Z,103018.72
2019-02-23T23:42:58.117Z,103018.81
2019-02-23T23:45:25.717Z,103017.23
2019-02-23T23:47:55.677Z,103013.30
2019-02-23T23:50:25.209Z,103007.09
2019-02-23T23:52:54.977Z,103016.88
2019-02-23T23:55:24.746Z,103020.33
2019-02-23T23:57:58.345Z,103014.40
